sensor_id;sensor_type;location;lat;lon;timestamp;temperature;humidity
59313;DHT22;45084;51.486;7.366;2023-12-20T00:01:00;7.20;99.90
59313;DHT22;45084;51.486;7.366;2023-12-20T00:03:25;7.30;99.90
59313;DHT22;45084;51.486;7.366;2023-12-20T00:05:51;7.20;99.90
59313;DHT22;45084;51.486;7.366;2023-12-20T00:08:17;7.10;99.90
59313;DHT22;45084;51.486;7.366;2023-12-20T00:10:44;7.10;99.90
59313;DHT22;45084;51.486;7.366;2023-12-20T00:13:10;7.20;99.90
59313;DHT22;45084;51.486;7.366;2023-12-20T00:15:35;7.10;99.90
59313;DHT22;45084;51.486;7.366;2023-12-20T00:18:01;7.20;99.90
59313;DHT22;45084;51.486;7.366;2023-12-20T00:20:28;7.20;99.90
59313;DHT22;45084;51.486;7.366;2023-12-20T00:22:56;7.20;99.90
59313;DHT22;45084;51.486;7.366;2023-12-20T00:25:23;7.20;99.90
59313;DHT22;45084;51.486;7.366;2023-12-20T00:27:48;7.10;99.90
59313;DHT22;45084;51.486;7.366;2023-12-20T00:30:14;7.10;99.90
59313;DHT22;45084;51.486;7.366;2023-12-20T00:32:40;7.10;99.90
59313;DHT22;45084;51.486;7.366;2023-12-20T00:35:12;7.10;99.90
59313;DHT22;45084;51.486;7.366;2023-12-20T00:37:37;7.20;99.90
59313;DHT22;45084;51.486;7.366;2023-12-20T00:40:03;7.20;99.90
59313;DHT22;45084;51.486;7.366;2023-12-20T00:42:29;7.20;99.90
59313;DHT22;45084;51.486;7.366;2023-12-20T00:44:59;7.10;99.90
59313;DHT22;45084;51.486;7.366;2023-12-20T00:47:25;7.10;99.90
59313;DHT22;45084;51.486;7.366;2023-12-20T00:49:51;7.10;99.90
59313;DHT22;45084;51.486;7.366;2023-12-20T00:52:18;7.00;99.90
59313;DHT22;45084;51.486;7.366;2023-12-20T00:54:43;6.90;99.90
59313;DHT22;45084;51.486;7.366;2023-12-20T00:57:09;6.90;99.90
59313;DHT22;45084;51.486;7.366;2023-12-20T00:59:35;6.80;99.90
59313;DHT22;45084;51.486;7.366;2023-12-20T01:02:01;6.70;99.90
59313;DHT22;45084;51.486;7.366;2023-12-20T01:04:27;6.70;99.90
59313;DHT22;45084;51.486;7.366;2023-12-20T01:06:52;6.70;99.90
59313;DHT22;45084;51.486;7.366;2023-12-20T01:09:19;6.70;99.90
59313;DHT22;45084;51.486;7.366;2023-12-20T01:11:44;6.70;99.90
59313;DHT22;45084;51.486;7.366;2023-12-20T01:14:12;6.80;99.90
59313;DHT22;45084;51.486;7.366;2023-12-20T01:16:37;6.70;99.90
59313;DHT22;45084;51.486;7.366;2023-12-20T01:19:03;6.60;99.90
59313;DHT22;45084;51.486;7.366;2023-12-20T01:21:29;6.60;99.90
59313;DHT22;45084;51.486;7.366;2023-12-20T01:23:54;6.70;99.90
59313;DHT22;45084;51.486;7.366;2023-12-20T01:26:20;6.70;99.90
59313;DHT22;45084;51.486;7.366;2023-12-20T01:28:45;6.60;99.90
59313;DHT22;45084;51.486;7.366;2023-12-20T01:31:11;6.70;99.90
59313;DHT22;45084;51.486;7.366;2023-12-20T01:33:37;6.70;99.90
59313;DHT22;45084;51.486;7.366;2023-12-20T01:36:03;6.70;99.90
59313;DHT22;45084;51.486;7.366;2023-12-20T01:38:29;6.70;99.90
59313;DHT22;45084;51.486;7.366;2023-12-20T01:40:54;6.60;99.90
59313;DHT22;45084;51.486;7.366;2023-12-20T01:43:20;6.50;99.90
59313;DHT22;45084;51.486;7.366;2023-12-20T01:45:47;6.60;99.90
59313;DHT22;45084;51.486;7.366;2023-12-20T01:48:13;6.60;99.90
59313;DHT22;45084;51.486;7.366;2023-12-20T01:50:40;6.60;99.90
59313;DHT22;45084;51.486;7.366;2023-12-20T01:53:07;6.60;99.90
59313;DHT22;45084;51.486;7.366;2023-12-20T01:55:35;6.60;99.90
59313;DHT22;45084;51.486;7.366;2023-12-20T01:58:03;6.60;99.90
59313;DHT22;45084;51.486;7.366;2023-12-20T02:00:30;6.60;99.90
59313;DHT22;45084;51.486;7.366;2023-12-20T02:02:56;6.60;99.90
59313;DHT22;45084;51.486;7.366;2023-12-20T02:05:25;6.50;99.90
59313;DHT22;45084;51.486;7.366;2023-12-20T02:07:51;6.40;99.90
59313;DHT22;45084;51.486;7.366;2023-12-20T02:10:16;6.40;99.90
59313;DHT22;45084;51.486;7.366;2023-12-20T02:12:42;6.20;99.90
59313;DHT22;45084;51.486;7.366;2023-12-20T02:15:08;6.30;99.90
59313;DHT22;45084;51.486;7.366;2023-12-20T02:17:34;6.30;99.90
59313;DHT22;45084;51.486;7.366;2023-12-20T02:19:59;6.30;99.90
59313;DHT22;45084;51.486;7.366;2023-12-20T02:22:25;6.20;99.90
59313;DHT22;45084;51.486;7.366;2023-12-20T02:24:50;6.10;99.90
59313;DHT22;45084;51.486;7.366;2023-12-20T02:27:17;6.10;99.90
59313;DHT22;45084;51.486;7.366;2023-12-20T02:29:47;6.00;99.90
59313;DHT22;45084;51.486;7.366;2023-12-20T02:32:13;6.00;99.90
59313;DHT22;45084;51.486;7.366;2023-12-20T02:34:39;5.90;99.90
59313;DHT22;45084;51.486;7.366;2023-12-20T02:37:04;6.00;99.90
59313;DHT22;45084;51.486;7.366;2023-12-20T02:39:30;5.80;99.90
59313;DHT22;45084;51.486;7.366;2023-12-20T02:41:56;5.80;99.90
59313;DHT22;45084;51.486;7.366;2023-12-20T02:44:21;5.70;99.90
59313;DHT22;45084;51.486;7.366;2023-12-20T02:46:47;5.80;99.90
59313;DHT22;45084;51.486;7.366;2023-12-20T02:49:13;5.80;99.90
59313;DHT22;45084;51.486;7.366;2023-12-20T02:51:38;5.80;99.90
59313;DHT22;45084;51.486;7.366;2023-12-20T02:54:04;5.90;99.90
59313;DHT22;45084;51.486;7.366;2023-12-20T02:56:31;5.90;99.90
59313;DHT22;45084;51.486;7.366;2023-12-20T02:58:57;5.90;99.90
59313;DHT22;45084;51.486;7.366;2023-12-20T03:01:22;6.00;99.90
59313;DHT22;45084;51.486;7.366;2023-12-20T03:03:48;6.00;99.90
59313;DHT22;45084;51.486;7.366;2023-12-20T03:06:17;6.00;99.90
59313;DHT22;45084;51.486;7.366;2023-12-20T03:08:44;6.00;99.90
59313;DHT22;45084;51.486;7.366;2023-12-20T03:11:09;6.00;99.90
59313;DHT22;45084;51.486;7.366;2023-12-20T03:13:35;6.10;99.90
59313;DHT22;45084;51.486;7.366;2023-12-20T03:16:00;6.10;99.90
59313;DHT22;45084;51.486;7.366;2023-12-20T03:18:26;6.10;99.90
59313;DHT22;45084;51.486;7.366;2023-12-20T03:20:53;6.10;99.90
59313;DHT22;45084;51.486;7.366;2023-12-20T03:23:19;6.10;99.90
59313;DHT22;45084;51.486;7.366;2023-12-20T03:25:44;6.10;99.90
59313;DHT22;45084;51.486;7.366;2023-12-20T03:28:10;6.10;99.90
59313;DHT22;45084;51.486;7.366;2023-12-20T03:30:36;6.10;99.90
59313;DHT22;45084;51.486;7.366;2023-12-20T03:33:01;6.10;99.90
59313;DHT22;45084;51.486;7.366;2023-12-20T03:35:27;6.10;99.90
59313;DHT22;45084;51.486;7.366;2023-12-20T03:37:52;6.10;99.90
59313;DHT22;45084;51.486;7.366;2023-12-20T03:40:18;6.10;99.90
59313;DHT22;45084;51.486;7.366;2023-12-20T03:42:44;6.10;99.90
59313;DHT22;45084;51.486;7.366;2023-12-20T03:45:09;6.00;99.90
59313;DHT22;45084;51.486;7.366;2023-12-20T03:47:35;6.10;99.90
59313;DHT22;45084;51.486;7.366;2023-12-20T03:50:00;6.00;99.90
59313;DHT22;45084;51.486;7.366;2023-12-20T03:52:26;6.00;99.90
59313;DHT22;45084;51.486;7.366;2023-12-20T03:54:52;6.00;99.90
59313;DHT22;45084;51.486;7.366;2023-12-20T03:57:17;5.90;99.90
59313;DHT22;45084;51.486;7.366;2023-12-20T03:59:43;5.90;99.90
59313;DHT22;45084;51.486;7.366;2023-12-20T04:02:08;5.90;99.90
59313;DHT22;45084;51.486;7.366;2023-12-20T04:04:34;5.80;99.90
59313;DHT22;45084;51.486;7.366;2023-12-20T04:06:59;5.70;99.90
59313;DHT22;45084;51.486;7.366;2023-12-20T04:09:25;5.60;99.90
59313;DHT22;45084;51.486;7.366;2023-12-20T04:11:51;5.70;99.90
59313;DHT22;45084;51.486;7.366;2023-12-20T04:14:19;5.60;99.90
59313;DHT22;45084;51.486;7.366;2023-12-20T04:16:45;5.70;99.90
59313;DHT22;45084;51.486;7.366;2023-12-20T04:19:10;5.70;99.90
59313;DHT22;45084;51.486;7.366;2023-12-20T04:21:36;5.70;99.90
59313;DHT22;45084;51.486;7.366;2023-12-20T04:24:02;5.70;99.90
59313;DHT22;45084;51.486;7.366;2023-12-20T04:26:27;5.70;99.90
59313;DHT22;45084;51.486;7.366;2023-12-20T04:28:53;5.70;99.90
59313;DHT22;45084;51.486;7.366;2023-12-20T04:31:18;5.70;99.90
59313;DHT22;45084;51.486;7.366;2023-12-20T04:33:44;5.70;99.90
59313;DHT22;45084;51.486;7.366;2023-12-20T04:36:09;5.70;99.90
59313;DHT22;45084;51.486;7.366;2023-12-20T04:38:35;5.70;99.90
59313;DHT22;45084;51.486;7.366;2023-12-20T04:41:01;5.70;99.90
59313;DHT22;45084;51.486;7.366;2023-12-20T04:43:26;5.70;99.90
59313;DHT22;45084;51.486;7.366;2023-12-20T04:45:52;5.70;99.90
59313;DHT22;45084;51.486;7.366;2023-12-20T04:48:17;5.70;99.90
59313;DHT22;45084;51.486;7.366;2023-12-20T04:50:43;5.70;99.90
59313;DHT22;45084;51.486;7.366;2023-12-20T04:53:08;5.70;99.90
59313;DHT22;45084;51.486;7.366;2023-12-20T04:55:34;5.80;99.90
59313;DHT22;45084;51.486;7.366;2023-12-20T04:57:59;5.70;99.90
59313;DHT22;45084;51.486;7.366;2023-12-20T05:00:25;5.70;99.90
59313;DHT22;45084;51.486;7.366;2023-12-20T05:02:51;5.70;99.90
59313;DHT22;45084;51.486;7.366;2023-12-20T05:05:16;5.70;99.90
59313;DHT22;45084;51.486;7.366;2023-12-20T05:07:43;5.80;99.90
59313;DHT22;45084;51.486;7.366;2023-12-20T05:10:09;5.80;99.90
59313;DHT22;45084;51.486;7.366;2023-12-20T05:12:35;5.80;99.90
59313;DHT22;45084;51.486;7.366;2023-12-20T05:15:00;5.80;99.90
59313;DHT22;45084;51.486;7.366;2023-12-20T05:17:26;5.80;99.90
59313;DHT22;45084;51.486;7.366;2023-12-20T05:19:52;5.80;99.90
59313;DHT22;45084;51.486;7.366;2023-12-20T05:22:19;5.70;99.90
59313;DHT22;45084;51.486;7.366;2023-12-20T05:24:45;5.70;99.90
59313;DHT22;45084;51.486;7.366;2023-12-20T05:27:10;5.60;99.90
59313;DHT22;45084;51.486;7.366;2023-12-20T05:29:36;5.70;99.90
59313;DHT22;45084;51.486;7.366;2023-12-20T05:32:02;5.70;99.90
59313;DHT22;45084;51.486;7.366;2023-12-20T05:34:30;5.60;99.90
59313;DHT22;45084;51.486;7.366;2023-12-20T05:36:56;5.70;99.90
59313;DHT22;45084;51.486;7.366;2023-12-20T05:39:21;5.70;99.90
59313;DHT22;45084;51.486;7.366;2023-12-20T05:41:47;5.70;99.90
59313;DHT22;45084;51.486;7.366;2023-12-20T05:44:13;5.70;99.90
59313;DHT22;45084;51.486;7.366;2023-12-20T05:46:38;5.70;99.90
59313;DHT22;45084;51.486;7.366;2023-12-20T05:49:05;5.60;99.90
59313;DHT22;45084;51.486;7.366;2023-12-20T05:51:31;5.70;99.90
59313;DHT22;45084;51.486;7.366;2023-12-20T05:53:58;5.60;99.90
59313;DHT22;45084;51.486;7.366;2023-12-20T05:56:24;5.50;99.90
59313;DHT22;45084;51.486;7.366;2023-12-20T05:58:49;5.50;99.90
59313;DHT22;45084;51.486;7.366;2023-12-20T06:01:15;5.40;99.90
59313;DHT22;45084;51.486;7.366;2023-12-20T06:03:43;5.50;99.90
59313;DHT22;45084;51.486;7.366;2023-12-20T06:06:09;5.50;99.90
59313;DHT22;45084;51.486;7.366;2023-12-20T06:08:35;5.60;99.90
59313;DHT22;45084;51.486;7.366;2023-12-20T06:11:01;5.60;99.90
59313;DHT22;45084;51.486;7.366;2023-12-20T06:13:26;5.60;99.90
59313;DHT22;45084;51.486;7.366;2023-12-20T06:15:54;5.60;99.90
59313;DHT22;45084;51.486;7.366;2023-12-20T06:18:19;5.60;99.90
59313;DHT22;45084;51.486;7.366;2023-12-20T06:20:45;5.60;99.90
59313;DHT22;45084;51.486;7.366;2023-12-20T06:23:11;5.50;99.90
59313;DHT22;45084;51.486;7.366;2023-12-20T06:25:36;5.60;99.90
59313;DHT22;45084;51.486;7.366;2023-12-20T06:28:02;5.60;99.90
59313;DHT22;45084;51.486;7.366;2023-12-20T06:30:27;5.70;99.90
59313;DHT22;45084;51.486;7.366;2023-12-20T06:32:54;5.60;99.90
59313;DHT22;45084;51.486;7.366;2023-12-20T06:35:20;5.60;99.90
59313;DHT22;45084;51.486;7.366;2023-12-20T06:37:45;5.60;99.90
59313;DHT22;45084;51.486;7.366;2023-12-20T06:40:11;5.60;99.90
59313;DHT22;45084;51.486;7.366;2023-12-20T06:42:37;5.60;99.90
59313;DHT22;45084;51.486;7.366;2023-12-20T06:45:03;5.60;99.90
59313;DHT22;45084;51.486;7.366;2023-12-20T06:47:29;5.60;99.90
59313;DHT22;45084;51.486;7.366;2023-12-20T06:49:54;5.60;99.90
59313;DHT22;45084;51.486;7.366;2023-12-20T06:52:20;5.60;99.90
59313;DHT22;45084;51.486;7.366;2023-12-20T06:54:45;5.60;99.90
59313;DHT22;45084;51.486;7.366;2023-12-20T06:57:11;5.60;99.90
59313;DHT22;45084;51.486;7.366;2023-12-20T06:59:41;5.70;99.90
59313;DHT22;45084;51.486;7.366;2023-12-20T07:02:07;5.60;99.90
59313;DHT22;45084;51.486;7.366;2023-12-20T07:04:33;5.60;99.90
59313;DHT22;45084;51.486;7.366;2023-12-20T07:06:59;5.70;99.90
59313;DHT22;45084;51.486;7.366;2023-12-20T07:09:26;5.60;99.90
59313;DHT22;45084;51.486;7.366;2023-12-20T07:11:52;5.70;99.90
59313;DHT22;45084;51.486;7.366;2023-12-20T07:14:18;5.60;99.90
59313;DHT22;45084;51.486;7.366;2023-12-20T07:16:43;5.70;99.90
59313;DHT22;45084;51.486;7.366;2023-12-20T07:19:09;5.70;99.90
59313;DHT22;45084;51.486;7.366;2023-12-20T07:21:34;5.70;99.90
59313;DHT22;45084;51.486;7.366;2023-12-20T07:24:00;5.70;99.90
59313;DHT22;45084;51.486;7.366;2023-12-20T07:26:26;5.70;99.90
59313;DHT22;45084;51.486;7.366;2023-12-20T07:28:51;5.70;99.90
59313;DHT22;45084;51.486;7.366;2023-12-20T07:31:17;5.70;99.90
59313;DHT22;45084;51.486;7.366;2023-12-20T07:33:42;5.70;99.90
59313;DHT22;45084;51.486;7.366;2023-12-20T07:36:08;5.70;99.90
59313;DHT22;45084;51.486;7.366;2023-12-20T07:38:34;5.70;99.90
59313;DHT22;45084;51.486;7.366;2023-12-20T07:41:00;5.70;99.90
59313;DHT22;45084;51.486;7.366;2023-12-20T07:43:25;5.70;99.90
59313;DHT22;45084;51.486;7.366;2023-12-20T07:45:51;5.80;99.90
59313;DHT22;45084;51.486;7.366;2023-12-20T07:48:16;5.70;99.90
59313;DHT22;45084;51.486;7.366;2023-12-20T07:50:42;5.80;99.90
59313;DHT22;45084;51.486;7.366;2023-12-20T07:53:08;5.80;99.90
59313;DHT22;45084;51.486;7.366;2023-12-20T07:55:34;5.80;99.90
59313;DHT22;45084;51.486;7.366;2023-12-20T07:58:00;5.80;99.90
59313;DHT22;45084;51.486;7.366;2023-12-20T08:00:26;5.80;99.90
59313;DHT22;45084;51.486;7.366;2023-12-20T08:02:52;5.80;99.90
59313;DHT22;45084;51.486;7.366;2023-12-20T08:05:17;5.80;99.90
59313;DHT22;45084;51.486;7.366;2023-12-20T08:07:43;5.90;99.90
59313;DHT22;45084;51.486;7.366;2023-12-20T08:10:09;5.90;99.90
59313;DHT22;45084;51.486;7.366;2023-12-20T08:12:35;5.90;99.90
59313;DHT22;45084;51.486;7.366;2023-12-20T08:15:01;5.90;99.90
59313;DHT22;45084;51.486;7.366;2023-12-20T08:17:27;5.90;99.90
59313;DHT22;45084;51.486;7.366;2023-12-20T08:19:52;5.90;99.90
59313;DHT22;45084;51.486;7.366;2023-12-20T08:22:18;6.00;99.90
59313;DHT22;45084;51.486;7.366;2023-12-20T08:24:44;6.00;99.90
59313;DHT22;45084;51.486;7.366;2023-12-20T08:27:09;6.00;99.90
59313;DHT22;45084;51.486;7.366;2023-12-20T08:29:35;6.10;99.90
59313;DHT22;45084;51.486;7.366;2023-12-20T08:32:01;6.00;99.90
59313;DHT22;45084;51.486;7.366;2023-12-20T08:34:27;6.10;99.90
59313;DHT22;45084;51.486;7.366;2023-12-20T08:36:53;6.10;99.90
59313;DHT22;45084;51.486;7.366;2023-12-20T08:39:19;6.10;99.90
59313;DHT22;45084;51.486;7.366;2023-12-20T08:41:44;6.10;99.90
59313;DHT22;45084;51.486;7.366;2023-12-20T08:44:10;6.10;99.90
59313;DHT22;45084;51.486;7.366;2023-12-20T08:46:36;6.10;99.90
59313;DHT22;45084;51.486;7.366;2023-12-20T08:49:02;6.10;99.90
59313;DHT22;45084;51.486;7.366;2023-12-20T08:51:28;6.20;99.90
59313;DHT22;45084;51.486;7.366;2023-12-20T08:53:54;6.20;99.90
59313;DHT22;45084;51.486;7.366;2023-12-20T08:56:20;6.20;99.90
59313;DHT22;45084;51.486;7.366;2023-12-20T08:58:46;6.20;99.90
59313;DHT22;45084;51.486;7.366;2023-12-20T09:01:13;6.30;99.90
59313;DHT22;45084;51.486;7.366;2023-12-20T09:03:39;6.20;99.90
59313;DHT22;45084;51.486;7.366;2023-12-20T09:06:05;6.30;99.90
59313;DHT22;45084;51.486;7.366;2023-12-20T09:08:31;6.20;99.90
59313;DHT22;45084;51.486;7.366;2023-12-20T09:10:56;6.20;99.90
59313;DHT22;45084;51.486;7.366;2023-12-20T09:13:22;6.30;99.90
59313;DHT22;45084;51.486;7.366;2023-12-20T09:15:54;6.20;99.90
59313;DHT22;45084;51.486;7.366;2023-12-20T09:18:20;6.30;99.90
59313;DHT22;45084;51.486;7.366;2023-12-20T09:20:48;6.30;99.90
59313;DHT22;45084;51.486;7.366;2023-12-20T09:23:14;6.30;99.90
59313;DHT22;45084;51.486;7.366;2023-12-20T09:25:39;6.30;99.90
59313;DHT22;45084;51.486;7.366;2023-12-20T09:28:05;6.40;99.90
59313;DHT22;45084;51.486;7.366;2023-12-20T09:30:31;6.40;99.90
59313;DHT22;45084;51.486;7.366;2023-12-20T09:32:57;6.40;99.90
59313;DHT22;45084;51.486;7.366;2023-12-20T09:35:23;6.40;99.90
59313;DHT22;45084;51.486;7.366;2023-12-20T09:37:49;6.30;99.90
59313;DHT22;45084;51.486;7.366;2023-12-20T09:40:17;6.40;99.90
59313;DHT22;45084;51.486;7.366;2023-12-20T09:43:04;6.40;99.90
59313;DHT22;45084;51.486;7.366;2023-12-20T09:45:31;6.40;99.90
59313;DHT22;45084;51.486;7.366;2023-12-20T09:47:58;6.40;99.90
59313;DHT22;45084;51.486;7.366;2023-12-20T09:50:23;6.40;99.90
59313;DHT22;45084;51.486;7.366;2023-12-20T09:52:53;6.40;99.90
59313;DHT22;45084;51.486;7.366;2023-12-20T09:55:20;6.50;99.90
59313;DHT22;45084;51.486;7.366;2023-12-20T09:57:49;6.50;99.90
59313;DHT22;45084;51.486;7.366;2023-12-20T10:00:15;6.50;99.90
59313;DHT22;45084;51.486;7.366;2023-12-20T10:05:17;6.50;99.90
59313;DHT22;45084;51.486;7.366;2023-12-20T10:07:46;6.60;99.90
59313;DHT22;45084;51.486;7.366;2023-12-20T10:10:13;6.60;99.90
59313;DHT22;45084;51.486;7.366;2023-12-20T10:12:39;6.60;99.90
59313;DHT22;45084;51.486;7.366;2023-12-20T10:15:05;6.60;99.90
59313;DHT22;45084;51.486;7.366;2023-12-20T10:17:31;6.60;99.90
59313;DHT22;45084;51.486;7.366;2023-12-20T10:19:57;6.60;99.90
59313;DHT22;45084;51.486;7.366;2023-12-20T10:22:23;6.60;99.90
59313;DHT22;45084;51.486;7.366;2023-12-20T10:24:49;6.70;99.90
59313;DHT22;45084;51.486;7.366;2023-12-20T10:27:14;6.70;99.90
59313;DHT22;45084;51.486;7.366;2023-12-20T10:29:44;6.70;99.90
59313;DHT22;45084;51.486;7.366;2023-12-20T10:32:23;6.80;99.90
59313;DHT22;45084;51.486;7.366;2023-12-20T10:34:50;6.70;99.90
59313;DHT22;45084;51.486;7.366;2023-12-20T10:37:15;6.70;99.90
59313;DHT22;45084;51.486;7.366;2023-12-20T10:39:42;6.70;99.90
59313;DHT22;45084;51.486;7.366;2023-12-20T10:42:11;6.70;99.90
59313;DHT22;45084;51.486;7.366;2023-12-20T10:44:36;6.60;99.90
59313;DHT22;45084;51.486;7.366;2023-12-20T10:47:03;6.60;99.90
59313;DHT22;45084;51.486;7.366;2023-12-20T10:49:30;6.70;99.90
59313;DHT22;45084;51.486;7.366;2023-12-20T10:51:59;6.70;99.90
59313;DHT22;45084;51.486;7.366;2023-12-20T10:54:27;6.80;99.90
59313;DHT22;45084;51.486;7.366;2023-12-20T10:56:54;6.70;99.90
59313;DHT22;45084;51.486;7.366;2023-12-20T10:59:23;6.80;99.90
59313;DHT22;45084;51.486;7.366;2023-12-20T11:01:50;6.80;99.90
59313;DHT22;45084;51.486;7.366;2023-12-20T11:04:22;6.80;99.90
59313;DHT22;45084;51.486;7.366;2023-12-20T11:06:56;6.80;99.90
59313;DHT22;45084;51.486;7.366;2023-12-20T11:12:16;6.60;99.90
59313;DHT22;45084;51.486;7.366;2023-12-20T11:14:46;6.60;99.90
59313;DHT22;45084;51.486;7.366;2023-12-20T11:17:13;6.60;99.90
59313;DHT22;45084;51.486;7.366;2023-12-20T11:20:06;6.70;99.90
59313;DHT22;45084;51.486;7.366;2023-12-20T11:22:33;6.80;99.90
59313;DHT22;45084;51.486;7.366;2023-12-20T11:25:07;6.70;99.90
59313;DHT22;45084;51.486;7.366;2023-12-20T11:27:40;6.80;99.90
59313;DHT22;45084;51.486;7.366;2023-12-20T11:30:06;6.80;99.90
59313;DHT22;45084;51.486;7.366;2023-12-20T11:32:34;6.90;99.90
59313;DHT22;45084;51.486;7.366;2023-12-20T11:35:17;6.90;99.90
59313;DHT22;45084;51.486;7.366;2023-12-20T11:37:45;7.00;99.90
59313;DHT22;45084;51.486;7.366;2023-12-20T11:40:16;7.00;99.90
59313;DHT22;45084;51.486;7.366;2023-12-20T11:42:52;7.00;99.90
59313;DHT22;45084;51.486;7.366;2023-12-20T11:45:24;7.00;99.90
59313;DHT22;45084;51.486;7.366;2023-12-20T11:47:51;7.00;99.90
59313;DHT22;45084;51.486;7.366;2023-12-20T11:50:20;7.10;99.90
59313;DHT22;45084;51.486;7.366;2023-12-20T11:52:46;7.00;99.90
59313;DHT22;45084;51.486;7.366;2023-12-20T11:55:12;7.10;99.90
59313;DHT22;45084;51.486;7.366;2023-12-20T11:57:38;7.00;99.90
59313;DHT22;45084;51.486;7.366;2023-12-20T12:00:04;6.90;99.90
59313;DHT22;45084;51.486;7.366;2023-12-20T12:02:31;6.90;99.90
59313;DHT22;45084;51.486;7.366;2023-12-20T12:04:58;6.80;99.90
59313;DHT22;45084;51.486;7.366;2023-12-20T12:07:24;6.80;99.90
59313;DHT22;45084;51.486;7.366;2023-12-20T12:09:50;6.80;99.90
59313;DHT22;45084;51.486;7.366;2023-12-20T12:12:17;6.90;99.90
59313;DHT22;45084;51.486;7.366;2023-12-20T12:14:44;7.00;99.90
59313;DHT22;45084;51.486;7.366;2023-12-20T12:17:14;6.90;99.90
59313;DHT22;45084;51.486;7.366;2023-12-20T12:19:40;6.90;99.90
59313;DHT22;45084;51.486;7.366;2023-12-20T12:22:15;6.90;99.90
59313;DHT22;45084;51.486;7.366;2023-12-20T12:24:43;6.80;99.90
59313;DHT22;45084;51.486;7.366;2023-12-20T12:27:10;6.70;99.90
59313;DHT22;45084;51.486;7.366;2023-12-20T12:29:36;6.70;99.90
59313;DHT22;45084;51.486;7.366;2023-12-20T12:32:07;6.60;99.90
59313;DHT22;45084;51.486;7.366;2023-12-20T12:34:34;6.60;99.90
59313;DHT22;45084;51.486;7.366;2023-12-20T12:36:59;6.50;99.90
59313;DHT22;45084;51.486;7.366;2023-12-20T12:39:25;6.50;99.90
59313;DHT22;45084;51.486;7.366;2023-12-20T12:41:52;6.50;99.90
59313;DHT22;45084;51.486;7.366;2023-12-20T12:44:17;6.50;99.90
59313;DHT22;45084;51.486;7.366;2023-12-20T12:46:46;6.50;99.90
59313;DHT22;45084;51.486;7.366;2023-12-20T12:49:15;6.60;99.90
59313;DHT22;45084;51.486;7.366;2023-12-20T12:51:41;6.60;99.90
59313;DHT22;45084;51.486;7.366;2023-12-20T12:54:06;6.70;99.90
59313;DHT22;45084;51.486;7.366;2023-12-20T12:56:32;6.80;99.90
59313;DHT22;45084;51.486;7.366;2023-12-20T12:58:58;6.80;99.90
59313;DHT22;45084;51.486;7.366;2023-12-20T13:01:23;6.80;99.90
59313;DHT22;45084;51.486;7.366;2023-12-20T13:03:49;6.80;99.90
59313;DHT22;45084;51.486;7.366;2023-12-20T13:06:15;6.80;99.90
59313;DHT22;45084;51.486;7.366;2023-12-20T13:08:40;6.90;99.90
59313;DHT22;45084;51.486;7.366;2023-12-20T13:11:07;6.80;99.90
59313;DHT22;45084;51.486;7.366;2023-12-20T13:13:32;6.90;99.90
59313;DHT22;45084;51.486;7.366;2023-12-20T13:15:58;6.90;99.90
59313;DHT22;45084;51.486;7.366;2023-12-20T13:18:24;6.90;99.90
59313;DHT22;45084;51.486;7.366;2023-12-20T13:20:49;6.90;99.90
59313;DHT22;45084;51.486;7.366;2023-12-20T13:23:15;6.90;99.90
59313;DHT22;45084;51.486;7.366;2023-12-20T13:25:43;6.90;99.90
59313;DHT22;45084;51.486;7.366;2023-12-20T13:28:11;6.90;99.90
59313;DHT22;45084;51.486;7.366;2023-12-20T13:30:36;6.90;99.90
59313;DHT22;45084;51.486;7.366;2023-12-20T13:33:02;6.90;99.90
59313;DHT22;45084;51.486;7.366;2023-12-20T13:35:28;6.90;99.90
59313;DHT22;45084;51.486;7.366;2023-12-20T13:37:53;6.80;99.90
59313;DHT22;45084;51.486;7.366;2023-12-20T13:40:19;7.00;99.90
59313;DHT22;45084;51.486;7.366;2023-12-20T13:42:45;6.90;99.90
59313;DHT22;45084;51.486;7.366;2023-12-20T13:45:11;6.90;99.90
59313;DHT22;45084;51.486;7.366;2023-12-20T13:47:36;6.80;99.90
59313;DHT22;45084;51.486;7.366;2023-12-20T13:50:03;6.90;99.90
59313;DHT22;45084;51.486;7.366;2023-12-20T13:52:29;6.80;99.90
59313;DHT22;45084;51.486;7.366;2023-12-20T13:54:54;6.80;99.90
59313;DHT22;45084;51.486;7.366;2023-12-20T13:57:20;6.80;99.90
59313;DHT22;45084;51.486;7.366;2023-12-20T13:59:46;6.80;99.90
59313;DHT22;45084;51.486;7.366;2023-12-20T14:02:11;6.80;99.90
59313;DHT22;45084;51.486;7.366;2023-12-20T14:04:37;6.70;99.90
59313;DHT22;45084;51.486;7.366;2023-12-20T14:07:04;6.70;99.90
59313;DHT22;45084;51.486;7.366;2023-12-20T14:09:31;6.70;99.90
59313;DHT22;45084;51.486;7.366;2023-12-20T14:11:56;6.70;99.90
59313;DHT22;45084;51.486;7.366;2023-12-20T14:14:22;6.60;99.90
59313;DHT22;45084;51.486;7.366;2023-12-20T14:16:47;6.60;99.90
59313;DHT22;45084;51.486;7.366;2023-12-20T14:19:13;6.60;99.90
59313;DHT22;45084;51.486;7.366;2023-12-20T14:21:39;6.60;99.90
59313;DHT22;45084;51.486;7.366;2023-12-20T14:24:05;6.60;99.90
59313;DHT22;45084;51.486;7.366;2023-12-20T14:26:31;6.70;99.90
59313;DHT22;45084;51.486;7.366;2023-12-20T14:28:57;6.70;99.90
59313;DHT22;45084;51.486;7.366;2023-12-20T14:31:23;6.60;99.90
59313;DHT22;45084;51.486;7.366;2023-12-20T14:33:50;6.70;99.90
59313;DHT22;45084;51.486;7.366;2023-12-20T14:36:18;6.60;99.90
59313;DHT22;45084;51.486;7.366;2023-12-20T14:38:45;6.60;99.90
59313;DHT22;45084;51.486;7.366;2023-12-20T14:41:12;6.60;99.90
59313;DHT22;45084;51.486;7.366;2023-12-20T14:43:37;6.70;99.90
59313;DHT22;45084;51.486;7.366;2023-12-20T14:46:03;6.70;99.90
59313;DHT22;45084;51.486;7.366;2023-12-20T14:48:30;6.70;99.90
59313;DHT22;45084;51.486;7.366;2023-12-20T14:50:57;6.70;99.90
59313;DHT22;45084;51.486;7.366;2023-12-20T14:53:24;6.70;99.90
59313;DHT22;45084;51.486;7.366;2023-12-20T14:55:50;6.70;99.90
59313;DHT22;45084;51.486;7.366;2023-12-20T14:58:16;6.70;99.90
59313;DHT22;45084;51.486;7.366;2023-12-20T15:00:42;6.70;99.90
59313;DHT22;45084;51.486;7.366;2023-12-20T15:03:09;6.70;99.90
59313;DHT22;45084;51.486;7.366;2023-12-20T15:05:34;6.60;99.90
59313;DHT22;45084;51.486;7.366;2023-12-20T15:08:01;6.70;99.90
59313;DHT22;45084;51.486;7.366;2023-12-20T15:10:27;6.60;99.90
59313;DHT22;45084;51.486;7.366;2023-12-20T15:12:52;6.70;99.90
59313;DHT22;45084;51.486;7.366;2023-12-20T15:15:18;6.70;99.90
59313;DHT22;45084;51.486;7.366;2023-12-20T15:17:44;6.70;99.90
59313;DHT22;45084;51.486;7.366;2023-12-20T15:20:10;6.70;99.90
59313;DHT22;45084;51.486;7.366;2023-12-20T15:22:36;6.70;99.90
59313;DHT22;45084;51.486;7.366;2023-12-20T15:25:03;6.80;99.90
59313;DHT22;45084;51.486;7.366;2023-12-20T15:27:30;6.70;99.90
59313;DHT22;45084;51.486;7.366;2023-12-20T15:29:56;6.70;99.90
59313;DHT22;45084;51.486;7.366;2023-12-20T15:32:22;6.70;99.90
59313;DHT22;45084;51.486;7.366;2023-12-20T15:34:48;6.70;99.90
59313;DHT22;45084;51.486;7.366;2023-12-20T15:37:14;6.70;99.90
59313;DHT22;45084;51.486;7.366;2023-12-20T15:39:41;6.70;99.90
59313;DHT22;45084;51.486;7.366;2023-12-20T15:42:07;6.70;99.90
59313;DHT22;45084;51.486;7.366;2023-12-20T15:44:33;6.70;99.90